Time;durP1;ratioP1;P1;durP2;ratioP2;P2;SDS_P1;SDS_P2;PMS_P1;PMS_P2;Temp;Humidity;BMP_temperature;BMP_pressure;BME280_temperature;BME280_humidity;BME280_pressure;Samples;Min_cycle;Max_cycle;Signal;HPM_P1;HPM_P2
2023/08/09 00:00:07;;;;;;;4.50;1.77;;;18.20;99.90;;;;;;5102890;27;45348;-71
2023/08/09 00:02:33;;;;;;;4.53;1.45;;;18.30;99.90;;;;;;5102222;27;46019;-72
2023/08/09 00:05:00;;;;;;;3.25;1.45;;;18.20;99.90;;;;;;5112614;27;45173;-72
2023/08/09 00:07:27;;;;;;;2.13;1.48;;;18.20;99.90;;;;;;5102290;27;45228;-72
2023/08/09 00:09:54;;;;;;;4.60;1.63;;;18.20;99.90;;;;;;5103211;27;45046;-72
2023/08/09 00:12:20;;;;;;;2.83;1.80;;;18.30;99.90;;;;;;5110622;27;45505;-71
2023/08/09 00:14:48;;;;;;;3.65;2.00;;;18.30;99.90;;;;;;5111849;27;46461;-72
2023/08/09 00:17:16;;;;;;;4.68;1.80;;;18.30;99.90;;;;;;5110020;27;45336;-72
2023/08/09 00:19:43;;;;;;;2.95;1.83;;;18.30;99.90;;;;;;5107217;27;45555;-72
2023/08/09 00:22:10;;;;;;;6.38;2.20;;;18.30;99.90;;;;;;5101750;27;45139;-72
2023/08/09 00:24:39;;;;;;;3.75;1.80;;;18.30;99.90;;;;;;5103333;27;45294;-71
2023/08/09 00:27:05;;;;;;;3.28;1.95;;;18.30;99.90;;;;;;5105133;27;45257;-72
2023/08/09 00:29:32;;;;;;;4.32;1.77;;;18.30;99.90;;;;;;5103008;27;45166;-72
2023/08/09 00:32:01;;;;;;;4.43;1.80;;;18.20;99.90;;;;;;5107634;27;46213;-72
2023/08/09 00:34:27;;;;;;;8.15;2.35;;;18.10;99.90;;;;;;5101506;27;45726;-71
2023/08/09 00:36:54;;;;;;;5.88;1.80;;;17.90;99.90;;;;;;5105299;27;45201;-72
2023/08/09 00:39:21;;;;;;;4.28;2.08;;;18.00;99.90;;;;;;5106133;27;45566;-72
2023/08/09 00:41:48;;;;;;;4.00;1.88;;;18.10;99.90;;;;;;5108631;27;47066;-71
2023/08/09 00:44:15;;;;;;;4.70;2.08;;;18.20;99.90;;;;;;5099858;27;45358;-72
2023/08/09 00:46:41;;;;;;;5.18;2.30;;;18.10;99.90;;;;;;5104315;27;45244;-71
2023/08/09 00:49:10;;;;;;;3.33;2.20;;;18.00;99.90;;;;;;5107340;27;45194;-71
2023/08/09 00:51:37;;;;;;;3.97;2.30;;;18.00;99.90;;;;;;5102938;27;46214;-72
2023/08/09 00:54:05;;;;;;;7.05;2.42;;;17.90;99.90;;;;;;5102742;27;45126;-71
2023/08/09 00:56:32;;;;;;;5.38;2.95;;;17.80;99.90;;;;;;5108461;27;45353;-71
2023/08/09 00:58:59;;;;;;;6.25;3.40;;;17.80;99.90;;;;;;5106144;27;45176;-71
2023/08/09 01:01:25;;;;;;;7.25;3.08;;;17.70;99.90;;;;;;5111294;27;48692;-72
2023/08/09 01:03:52;;;;;;;3.95;1.35;;;17.70;99.90;;;;;;5105144;27;45240;-71
2023/08/09 01:06:29;;;;;;;2.42;1.20;;;17.80;99.90;;;;;;5103659;27;45234;-72
2023/08/09 01:09:06;;;;;;;2.40;0.93;;;17.90;99.90;;;;;;5108686;27;45258;-72
2023/08/09 01:11:40;;;;;;;3.47;0.90;;;18.00;99.90;;;;;;5108786;27;47027;-72
2023/08/09 01:14:09;;;;;;;2.05;0.80;;;18.10;99.90;;;;;;5111584;27;45201;-72
2023/08/09 01:16:37;;;;;;;1.02;0.68;;;18.10;99.90;;;;;;5103690;27;45206;-72
2023/08/09 01:19:10;;;;;;;1.73;0.80;;;18.10;99.90;;;;;;5106955;27;45514;-71
2023/08/09 01:21:44;;;;;;;0.73;0.68;;;18.10;99.90;;;;;;5106216;27;48334;-72
2023/08/09 01:24:12;;;;;;;1.63;0.88;;;18.10;99.90;;;;;;5107600;27;45227;-72
2023/08/09 01:26:40;;;;;;;0.80;0.60;;;18.10;99.90;;;;;;5107294;27;45326;-72
2023/08/09 01:29:07;;;;;;;1.10;0.73;;;18.10;99.90;;;;;;5110236;27;45411;-71
2023/08/09 01:31:34;;;;;;;3.42;0.80;;;18.00;99.90;;;;;;5110643;27;46493;-72
2023/08/09 01:34:01;;;;;;;1.52;0.80;;;18.00;99.90;;;;;;5102117;27;45836;-71
2023/08/09 01:36:33;;;;;;;1.55;0.88;;;17.80;99.90;;;;;;5107671;27;45145;-72
2023/08/09 01:39:07;;;;;;;1.90;1.00;;;17.80;99.90;;;;;;5110105;27;45416;-71
2023/08/09 01:41:36;;;;;;;3.78;1.17;;;17.90;99.90;;;;;;5114883;27;48230;-72
2023/08/09 01:44:04;;;;;;;2.03;1.20;;;17.90;99.90;;;;;;5109954;27;45157;-72
2023/08/09 01:46:32;;;;;;;1.00;0.90;;;17.90;99.90;;;;;;5115336;27;45134;-72
2023/08/09 01:49:09;;;;;;;2.05;0.98;;;17.80;99.90;;;;;;5106522;27;45257;-72
2023/08/09 01:51:36;;;;;;;1.35;0.80;;;17.80;99.90;;;;;;5100076;27;48593;-71
2023/08/09 01:54:03;;;;;;;1.10;1.00;;;17.90;99.90;;;;;;5106588;27;45217;-71
2023/08/09 01:56:30;;;;;;;0.85;0.80;;;17.90;99.90;;;;;;5105249;27;45105;-71
2023/08/09 01:58:58;;;;;;;1.02;0.85;;;17.90;99.90;;;;;;5104335;27;45182;-72
2023/08/09 02:01:25;;;;;;;1.20;1.10;;;17.90;99.90;;;;;;5103786;27;46222;-71
2023/08/09 02:03:53;;;;;;;1.17;1.05;;;18.00;99.90;;;;;;5119922;27;45146;-72
2023/08/09 02:06:19;;;;;;;1.13;1.00;;;18.00;99.90;;;;;;5125741;27;45200;-71
2023/08/09 02:08:46;;;;;;;1.00;0.90;;;18.10;99.90;;;;;;5108471;27;45360;-71
2023/08/09 02:11:13;;;;;;;2.47;1.00;;;18.00;99.90;;;;;;5108415;27;47966;-71
2023/08/09 02:13:40;;;;;;;1.15;0.90;;;18.00;99.90;;;;;;5118207;27;45150;-71
2023/08/09 02:16:08;;;;;;;0.98;0.90;;;18.00;99.90;;;;;;5104447;27;45178;-72
2023/08/09 02:18:35;;;;;;;1.02;0.80;;;18.00;99.90;;;;;;5104537;27;45186;-71
2023/08/09 02:21:02;;;;;;;2.03;0.98;;;18.00;99.90;;;;;;5103227;27;48016;-72
2023/08/09 02:23:29;;;;;;;1.33;0.93;;;18.00;99.90;;;;;;5111421;27;45188;-72
2023/08/09 02:25:56;;;;;;;3.13;0.88;;;18.00;99.90;;;;;;5105400;27;45190;-72
2023/08/09 02:28:23;;;;;;;2.03;0.80;;;18.00;99.90;;;;;;5105629;27;45321;-72
2023/08/09 02:30:50;;;;;;;1.27;0.90;;;18.00;99.90;;;;;;5102518;27;47768;-72
2023/08/09 02:33:18;;;;;;;2.47;1.02;;;18.00;99.90;;;;;;5102932;27;45176;-72
2023/08/09 02:35:53;;;;;;;1.45;0.77;;;18.00;99.90;;;;;;5102789;27;45200;-72
2023/08/09 02:38:20;;;;;;;1.05;0.90;;;18.00;99.90;;;;;;5112227;27;45123;-72
2023/08/09 02:40:48;;;;;;;2.03;1.00;;;18.00;99.90;;;;;;5105997;27;46336;-72
2023/08/09 02:43:15;;;;;;;1.10;1.00;;;18.00;99.90;;;;;;5110502;27;45579;-72
2023/08/09 02:45:42;;;;;;;1.70;0.98;;;18.00;99.90;;;;;;5105618;27;45061;-72
2023/08/09 02:48:09;;;;;;;1.05;0.95;;;18.10;99.90;;;;;;5112147;27;45325;-72
2023/08/09 02:50:37;;;;;;;4.88;1.00;;;18.10;99.90;;;;;;5109938;27;45161;-72
2023/08/09 02:53:04;;;;;;;0.75;0.75;;;18.10;99.90;;;;;;5114287;27;45235;-72
2023/08/09 02:55:32;;;;;;;1.67;0.80;;;18.10;99.90;;;;;;5107028;27;45278;-72
2023/08/09 02:57:59;;;;;;;1.60;0.75;;;18.10;99.90;;;;;;5107480;27;45418;-72
2023/08/09 03:00:27;;;;;;;1.00;0.75;;;18.00;99.90;;;;;;5096474;27;46256;-72
2023/08/09 03:02:53;;;;;;;0.98;0.90;;;18.00;99.90;;;;;;5117270;27;45209;-72
2023/08/09 03:05:20;;;;;;;0.90;0.80;;;17.90;99.90;;;;;;5108899;27;45491;-72
2023/08/09 03:07:48;;;;;;;1.05;0.80;;;17.90;99.90;;;;;;5104289;27;45117;-72
2023/08/09 03:10:15;;;;;;;1.73;1.10;;;17.90;99.90;;;;;;5103569;27;48142;-72
2023/08/09 03:12:42;;;;;;;2.05;1.00;;;17.90;99.90;;;;;;5110368;27;45466;-72
2023/08/09 03:15:10;;;;;;;1.02;0.93;;;17.90;99.90;;;;;;5113802;27;45094;-72
2023/08/09 03:17:37;;;;;;;0.93;0.80;;;18.00;99.90;;;;;;5109227;27;45426;-71
2023/08/09 03:20:09;;;;;;;1.25;0.82;;;18.00;99.90;;;;;;5106237;27;46268;-72
2023/08/09 03:22:36;;;;;;;1.85;0.73;;;18.10;99.90;;;;;;5103066;27;45231;-71
2023/08/09 03:25:05;;;;;;;1.05;0.82;;;18.10;99.90;;;;;;5109182;27;45101;-72
2023/08/09 03:27:32;;;;;;;3.28;1.27;;;18.00;99.90;;;;;;5106066;27;45394;-72
2023/08/09 03:29:59;;;;;;;1.77;1.25;;;18.10;99.90;;;;;;5110501;27;47219;-72
2023/08/09 03:32:25;;;;;;;1.20;1.02;;;18.10;99.90;;;;;;5103888;27;45218;-72
2023/08/09 03:34:52;;;;;;;1.98;1.25;;;18.20;99.90;;;;;;5102192;27;45105;-72
2023/08/09 03:37:19;;;;;;;1.67;0.90;;;18.20;99.90;;;;;;5105403;27;45571;-72
2023/08/09 03:39:46;;;;;;;2.83;1.10;;;18.20;99.90;;;;;;5112327;27;45153;-72
2023/08/09 03:42:14;;;;;;;1.70;1.02;;;18.20;99.90;;;;;;5103608;27;45206;-72
2023/08/09 03:44:41;;;;;;;2.22;1.13;;;18.10;99.90;;;;;;5104188;27;45219;-71
2023/08/09 03:47:08;;;;;;;1.85;1.30;;;18.20;99.90;;;;;;5104937;27;45290;-72
2023/08/09 03:49:35;;;;;;;2.28;1.27;;;18.20;99.90;;;;;;5105911;27;45449;-72
2023/08/09 03:52:02;;;;;;;1.08;0.85;;;18.20;99.90;;;;;;5105024;27;45129;-72
2023/08/09 03:54:30;;;;;;;1.75;1.13;;;18.10;99.90;;;;;;5104992;27;45247;-72
2023/08/09 03:56:56;;;;;;;2.72;1.30;;;18.00;99.90;;;;;;5101283;27;45249;-71
2023/08/09 03:59:24;;;;;;;2.75;1.20;;;18.00;99.90;;;;;;5101746;27;48563;-72
2023/08/09 04:01:52;;;;;;;1.30;1.20;;;18.00;99.90;;;;;;5091370;27;45270;-71
2023/08/09 04:04:19;;;;;;;1.33;1.00;;;17.90;99.90;;;;;;5096634;27;45261;-72
2023/08/09 04:06:45;;;;;;;0.90;0.80;;;17.90;99.90;;;;;;5102439;27;45363;-72
2023/08/09 04:09:12;;;;;;;1.63;1.20;;;17.90;99.90;;;;;;5109075;27;47969;-71
2023/08/09 04:11:39;;;;;;;5.07;0.90;;;17.90;99.90;;;;;;5109379;27;45364;-72
2023/08/09 04:14:06;;;;;;;1.92;1.02;;;17.90;99.90;;;;;;5104874;27;45323;-72
2023/08/09 04:16:34;;;;;;;1.55;1.10;;;17.90;99.90;;;;;;5102190;27;45263;-71
2023/08/09 04:19:01;;;;;;;1.80;1.02;;;18.00;99.90;;;;;;5111149;27;48943;-73
2023/08/09 04:21:28;;;;;;;1.42;1.10;;;17.90;99.90;;;;;;5104606;27;45183;-72
2023/08/09 04:23:55;;;;;;;1.52;1.30;;;17.90;99.90;;;;;;5112127;27;45148;-72
2023/08/09 04:26:22;;;;;;;1.42;1.00;;;18.00;99.90;;;;;;5104954;27;45359;-72
2023/08/09 04:28:49;;;;;;;3.03;1.08;;;18.00;99.90;;;;;;5107872;27;46023;-72
2023/08/09 04:31:16;;;;;;;2.15;1.17;;;18.10;99.90;;;;;;5100336;27;45327;-72
2023/08/09 04:33:49;;;;;;;4.30;1.15;;;18.10;99.90;;;;;;5103454;27;45204;-72
2023/08/09 04:36:16;;;;;;;1.48;1.20;;;18.10;99.90;;;;;;5109778;27;45288;-72
2023/08/09 04:38:43;;;;;;;1.10;1.00;;;18.10;99.90;;;;;;5108955;27;46491;-72
2023/08/09 04:41:10;;;;;;;1.23;1.05;;;18.20;99.90;;;;;;5115551;27;45167;-72
2023/08/09 04:43:38;;;;;;;1.70;1.08;;;18.30;99.90;;;;;;5110601;27;45231;-71
2023/08/09 04:46:05;;;;;;;5.43;1.10;;;18.40;99.90;;;;;;5102961;27;45305;-72
2023/08/09 04:48:31;;;;;;;1.42;1.02;;;18.40;99.90;;;;;;5102840;27;46230;-72
2023/08/09 04:51:00;;;;;;;1.85;1.00;;;18.50;99.90;;;;;;5099227;27;45214;-72
2023/08/09 04:53:26;;;;;;;1.25;1.02;;;18.40;99.90;;;;;;5111017;27;45197;-72
2023/08/09 04:55:53;;;;;;;1.25;0.93;;;18.40;99.90;;;;;;5101377;27;45300;-72
2023/08/09 04:58:20;;;;;;;1.95;1.20;;;18.50;99.90;;;;;;5102259;27;45295;-72
2023/08/09 05:00:47;;;;;;;4.28;0.90;;;18.50;99.90;;;;;;5096712;27;45359;-72
2023/08/09 05:03:14;;;;;;;1.98;1.20;;;18.50;99.90;;;;;;5103400;27;45270;-72
2023/08/09 05:05:41;;;;;;;4.07;1.55;;;18.40;99.90;;;;;;5106151;27;45305;-72
2023/08/09 05:08:09;;;;;;;2.35;1.50;;;18.30;99.90;;;;;;5110627;27;47252;-72
2023/08/09 05:10:36;;;;;;;1.50;1.23;;;18.10;99.90;;;;;;5118756;27;45555;-72
2023/08/09 05:13:03;;;;;;;5.10;1.77;;;18.00;99.90;;;;;;5105257;27;45230;-73
2023/08/09 05:15:30;;;;;;;4.30;1.63;;;18.00;99.90;;;;;;5111302;27;45311;-72
2023/08/09 05:17:57;;;;;;;2.65;1.30;;;18.00;99.90;;;;;;5106121;27;45316;-72
2023/08/09 05:20:24;;;;;;;2.70;1.52;;;18.00;99.90;;;;;;5105717;27;45223;-72
2023/08/09 05:22:51;;;;;;;2.50;1.38;;;18.00;99.90;;;;;;5105689;27;45248;-72
2023/08/09 05:25:19;;;;;;;2.13;1.20;;;18.00;99.90;;;;;;5105152;27;45190;-72
2023/08/09 05:27:47;;;;;;;1.58;1.25;;;17.90;99.90;;;;;;5110124;27;45442;-73
2023/08/09 05:30:14;;;;;;;3.00;1.48;;;18.00;99.90;;;;;;5098752;27;45245;-72
2023/08/09 05:32:41;;;;;;;2.13;1.30;;;18.00;99.90;;;;;;5102804;27;45210;-72
2023/08/09 05:35:09;;;;;;;2.22;1.30;;;18.00;99.90;;;;;;5105325;27;45141;-72
2023/08/09 05:37:35;;;;;;;2.03;1.52;;;18.00;99.90;;;;;;5103141;27;48143;-72
2023/08/09 05:40:03;;;;;;;2.13;1.40;;;18.00;99.90;;;;;;5105548;27;45346;-72
2023/08/09 05:42:31;;;;;;;1.65;1.23;;;18.00;99.90;;;;;;5112162;27;45281;-72
2023/08/09 05:44:59;;;;;;;1.40;1.20;;;18.10;99.90;;;;;;5102294;27;45287;-72
2023/08/09 05:47:25;;;;;;;2.33;1.58;;;18.20;99.90;;;;;;5107719;27;48082;-72
2023/08/09 05:49:52;;;;;;;2.40;1.30;;;18.20;99.90;;;;;;5113101;27;45109;-72
2023/08/09 05:52:19;;;;;;;2.45;1.50;;;18.10;99.90;;;;;;5111091;27;45184;-72
2023/08/09 05:54:47;;;;;;;2.00;1.38;;;18.20;99.90;;;;;;5102090;27;45277;-72
2023/08/09 05:57:13;;;;;;;2.22;1.67;;;18.20;99.90;;;;;;5103814;27;45577;-72
2023/08/09 05:59:42;;;;;;;2.10;1.42;;;18.20;99.90;;;;;;5104231;27;45266;-72
2023/08/09 06:02:09;;;;;;;2.55;1.60;;;18.10;99.90;;;;;;5105811;27;45429;-72
2023/08/09 06:04:36;;;;;;;2.05;1.60;;;18.10;99.90;;;;;;5104298;27;45333;-72
2023/08/09 06:07:03;;;;;;;2.88;1.70;;;18.20;99.90;;;;;;5102406;27;48221;-72
2023/08/09 06:09:30;;;;;;;3.17;1.60;;;18.10;99.90;;;;;;5111483;27;45100;-72
2023/08/09 06:11:57;;;;;;;2.30;1.88;;;18.20;99.90;;;;;;5107607;27;45105;-72
2023/08/09 06:14:24;;;;;;;1.92;1.67;;;18.20;99.90;;;;;;5104658;27;45172;-72
2023/08/09 06:16:52;;;;;;;2.83;2.13;;;18.10;99.90;;;;;;5106254;27;46274;-73
2023/08/09 06:19:19;;;;;;;3.08;2.10;;;18.10;99.90;;;;;;5105244;27;45504;-72
2023/08/09 06:21:45;;;;;;;3.65;2.05;;;18.20;99.90;;;;;;5093483;27;45225;-72
2023/08/09 06:24:12;;;;;;;2.95;1.90;;;18.20;99.90;;;;;;5104500;27;45083;-72
2023/08/09 06:26:39;;;;;;;5.00;2.00;;;18.20;99.90;;;;;;5112571;27;46355;-72
2023/08/09 06:29:06;;;;;;;2.95;1.88;;;18.10;99.90;;;;;;5118433;27;45912;-72
2023/08/09 06:31:33;;;;;;;3.28;1.63;;;18.10;99.90;;;;;;5097115;27;45334;-72
2023/08/09 06:34:01;;;;;;;2.58;1.70;;;18.10;99.90;;;;;;5101943;27;45207;-72
2023/08/09 06:36:28;;;;;;;2.53;1.90;;;18.00;99.90;;;;;;5103231;27;45301;-72
2023/08/09 06:38:54;;;;;;;2.80;2.00;;;18.10;99.90;;;;;;5110870;27;45106;-72
2023/08/09 06:41:21;;;;;;;2.80;1.65;;;18.20;99.90;;;;;;5115146;27;45287;-72
2023/08/09 06:43:48;;;;;;;2.22;1.70;;;18.20;99.90;;;;;;5104845;27;45257;-71
2023/08/09 06:46:15;;;;;;;5.20;2.10;;;18.10;99.90;;;;;;5112521;27;45204;-72
2023/08/09 06:48:42;;;;;;;4.60;1.83;;;18.10;99.90;;;;;;5113809;27;45197;-72
2023/08/09 06:51:11;;;;;;;4.60;2.00;;;18.20;99.90;;;;;;5103185;27;45347;-71
2023/08/09 06:53:38;;;;;;;2.80;2.00;;;18.20;99.90;;;;;;5104242;27;45386;-72
2023/08/09 06:56:05;;;;;;;3.95;1.83;;;18.30;99.90;;;;;;5103049;27;46973;-72
2023/08/09 06:58:31;;;;;;;2.60;1.98;;;18.30;99.90;;;;;;5106709;27;45093;-72
2023/08/09 07:00:58;;;;;;;2.15;1.80;;;18.40;99.90;;;;;;5106005;27;45254;-72
2023/08/09 07:03:25;;;;;;;4.53;1.90;;;18.40;99.90;;;;;;5084350;28;45131;-71
2023/08/09 07:05:52;;;;;;;3.05;1.83;;;18.40;99.90;;;;;;5083578;28;45141;-72
2023/08/09 07:08:22;;;;;;;2.22;1.70;;;18.40;99.90;;;;;;5082869;27;45315;-72
2023/08/09 07:10:49;;;;;;;3.15;2.10;;;18.40;99.90;;;;;;5089407;27;45331;-72
2023/08/09 07:13:15;;;;;;;2.97;1.70;;;18.40;99.90;;;;;;5082664;28;45264;-71
2023/08/09 07:15:42;;;;;;;3.33;1.80;;;18.50;99.90;;;;;;5083484;28;47184;-72
2023/08/09 07:18:09;;;;;;;3.17;2.10;;;18.60;99.90;;;;;;5085123;27;45210;-72
2023/08/09 07:20:36;;;;;;;4.40;1.73;;;18.60;99.90;;;;;;5083055;27;45262;-72
2023/08/09 07:23:02;;;;;;;3.75;2.03;;;18.70;99.90;;;;;;5083419;28;45034;-72
2023/08/09 07:25:31;;;;;;;2.22;1.98;;;18.70;99.90;;;;;;5082709;28;47511;-72
2023/08/09 07:27:57;;;;;;;3.97;1.95;;;18.70;99.90;;;;;;5077173;28;45213;-71
2023/08/09 07:30:24;;;;;;;3.20;1.67;;;18.70;99.90;;;;;;5083741;27;45194;-71
2023/08/09 07:32:51;;;;;;;2.40;1.70;;;18.60;99.90;;;;;;5082977;28;45269;-71
2023/08/09 07:35:18;;;;;;;6.85;1.90;;;18.60;99.90;;;;;;5086190;27;48961;-72
2023/08/09 07:37:46;;;;;;;2.22;1.80;;;18.60;99.90;;;;;;5091192;27;45260;-71
2023/08/09 07:40:14;;;;;;;2.60;1.38;;;18.50;99.90;;;;;;5084168;27;45335;-72
2023/08/09 07:42:43;;;;;;;2.15;1.40;;;18.50;99.90;;;;;;5082878;28;45242;-72
2023/08/09 07:45:11;;;;;;;2.08;1.33;;;18.60;99.90;;;;;;5082577;27;45340;-72
2023/08/09 07:47:38;;;;;;;2.67;1.60;;;18.60;99.90;;;;;;5084327;27;45182;-71
2023/08/09 07:50:06;;;;;;;5.20;1.67;;;18.60;99.90;;;;;;5085430;27;45313;-72
2023/08/09 07:52:33;;;;;;;4.50;1.50;;;18.70;99.90;;;;;;5082665;28;45152;-72
2023/08/09 07:55:00;;;;;;;2.70;1.55;;;18.70;99.90;;;;;;5087059;27;47024;-72
2023/08/09 07:57:27;;;;;;;2.72;1.55;;;18.70;99.90;;;;;;5089605;27;45237;-72
2023/08/09 07:59:55;;;;;;;3.80;1.80;;;18.70;99.90;;;;;;5087905;27;45234;-72
2023/08/09 08:02:22;;;;;;;3.40;1.80;;;18.70;99.90;;;;;;5099382;27;45331;-71
2023/08/09 08:04:48;;;;;;;1.88;1.40;;;18.80;99.90;;;;;;5104443;27;47867;-71
2023/08/09 08:07:15;;;;;;;3.72;1.80;;;18.70;99.90;;;;;;5102702;27;45157;-72
2023/08/09 08:09:42;;;;;;;2.03;1.40;;;18.70;99.90;;;;;;5104002;27;45323;-71
2023/08/09 08:12:09;;;;;;;2.45;1.75;;;18.80;99.90;;;;;;5101671;27;45380;-72
2023/08/09 08:14:37;;;;;;;3.85;1.52;;;18.80;99.90;;;;;;5108612;27;47249;-72
2023/08/09 08:17:05;;;;;;;4.93;1.60;;;18.80;99.90;;;;;;5112157;27;45164;-72
2023/08/09 08:19:32;;;;;;;3.67;1.50;;;18.70;99.90;;;;;;5102058;27;45159;-72
2023/08/09 08:21:59;;;;;;;4.03;1.60;;;18.70;99.90;;;;;;5104002;27;45272;-72
2023/08/09 08:24:26;;;;;;;2.45;1.55;;;18.70;99.90;;;;;;5102971;27;47191;-71
2023/08/09 08:26:54;;;;;;;2.55;1.60;;;18.80;99.90;;;;;;5115896;27;45248;-72
2023/08/09 08:29:22;;;;;;;2.50;1.75;;;18.90;99.90;;;;;;5119913;27;45284;-72
2023/08/09 08:31:50;;;;;;;1.83;1.60;;;18.90;99.90;;;;;;5105217;27;45312;-71
2023/08/09 08:34:21;;;;;;;3.22;1.73;;;18.90;99.90;;;;;;5106021;27;45272;-71
2023/08/09 08:36:48;;;;;;;2.90;1.75;;;18.90;99.90;;;;;;5110130;27;45204;-71
2023/08/09 08:39:15;;;;;;;2.25;1.85;;;18.90;99.90;;;;;;5114917;27;45184;-71
2023/08/09 08:41:42;;;;;;;2.25;1.73;;;18.90;99.90;;;;;;5108138;27;45299;-72
2023/08/09 08:44:11;;;;;;;2.28;1.60;;;18.90;99.90;;;;;;5106225;27;45187;-72
2023/08/09 08:46:38;;;;;;;3.60;1.92;;;18.80;99.90;;;;;;5109471;27;45326;-71
2023/08/09 08:49:05;;;;;;;4.97;2.80;;;18.80;99.90;;;;;;5114576;27;45216;-72
2023/08/09 08:51:35;;;;;;;2.70;1.70;;;18.80;99.90;;;;;;5104683;27;45276;-71
2023/08/09 08:54:02;;;;;;;3.28;1.80;;;18.90;99.90;;;;;;5105276;27;47438;-71
2023/08/09 08:56:30;;;;;;;2.90;1.98;;;19.00;99.90;;;;;;5108727;27;45543;-72
2023/08/09 08:58:59;;;;;;;2.38;1.73;;;19.00;99.90;;;;;;5105901;27;45117;-71
2023/08/09 09:01:26;;;;;;;1.85;1.60;;;19.00;99.90;;;;;;5112878;27;45248;-71
2023/08/09 09:03:53;;;;;;;2.90;1.55;;;19.00;99.90;;;;;;5105327;27;45548;-72
2023/08/09 09:06:20;;;;;;;3.50;1.83;;;19.10;99.90;;;;;;5105017;27;46139;-72
2023/08/09 09:08:55;;;;;;;3.30;1.98;;;19.10;99.90;;;;;;5114144;27;45289;-71
2023/08/09 09:11:22;;;;;;;2.50;2.00;;;19.10;99.90;;;;;;5108369;27;45156;-71
2023/08/09 09:13:50;;;;;;;3.45;2.00;;;19.10;99.90;;;;;;5103317;27;48097;-72
2023/08/09 09:16:18;;;;;;;6.20;2.20;;;19.10;99.90;;;;;;5104724;27;45168;-71
2023/08/09 09:18:46;;;;;;;2.78;1.77;;;19.10;99.90;;;;;;5106230;27;45321;-72
2023/08/09 09:21:14;;;;;;;4.50;2.10;;;19.10;99.90;;;;;;5113898;27;45288;-72
2023/08/09 09:23:41;;;;;;;2.67;1.83;;;19.10;99.90;;;;;;5105045;27;46207;-71
2023/08/09 09:26:11;;;;;;;3.33;2.08;;;19.10;99.90;;;;;;5105593;27;45269;-71
2023/08/09 09:28:41;;;;;;;2.15;1.75;;;19.10;99.90;;;;;;5106346;27;45190;-71
2023/08/09 09:31:10;;;;;;;4.13;1.88;;;19.20;99.90;;;;;;5104747;27;45212;-71
2023/08/09 09:33:39;;;;;;;2.75;1.75;;;19.30;99.90;;;;;;5105159;27;47948;-72
2023/08/09 09:36:12;;;;;;;3.75;2.08;;;19.30;99.90;;;;;;5103633;27;45266;-72
2023/08/09 09:38:39;;;;;;;3.10;1.70;;;19.30;99.90;;;;;;5116595;27;45172;-71
2023/08/09 09:41:07;;;;;;;2.47;1.70;;;19.30;99.90;;;;;;5109920;27;45299;-72
2023/08/09 09:43:39;;;;;;;3.65;1.88;;;19.40;99.90;;;;;;5114816;27;45167;-71
2023/08/09 09:46:18;;;;;;;4.25;1.60;;;19.50;99.90;;;;;;5107001;27;45164;-71
2023/08/09 09:48:48;;;;;;;3.05;1.65;;;19.50;99.90;;;;;;5104434;27;45224;-71
2023/08/09 09:51:17;;;;;;;3.35;1.98;;;19.50;99.90;;;;;;5104558;27;45463;-71
2023/08/09 09:53:45;;;;;;;3.42;2.20;;;19.50;99.90;;;;;;5105535;27;46031;-71
2023/08/09 09:56:12;;;;;;;2.97;1.73;;;19.50;99.90;;;;;;5113514;27;45182;-71
2023/08/09 09:58:41;;;;;;;2.47;1.58;;;19.50;99.90;;;;;;5104541;27;45175;-71
2023/08/09 10:01:10;;;;;;;4.85;1.67;;;19.40;99.90;;;;;;5104137;27;45388;-72
2023/08/09 10:03:39;;;;;;;2.45;1.25;;;19.30;99.90;;;;;;5105111;27;46295;-71
2023/08/09 10:06:14;;;;;;;6.22;1.70;;;19.30;99.90;;;;;;5104328;27;46019;-71
2023/08/09 10:08:42;;;;;;;2.63;1.77;;;19.30;99.90;;;;;;5104303;27;45280;-71
2023/08/09 10:11:11;;;;;;;2.08;1.42;;;19.30;99.90;;;;;;5105631;27;45320;-71
2023/08/09 10:13:41;;;;;;;3.10;1.67;;;19.40;99.90;;;;;;5108874;27;46273;-71
2023/08/09 10:16:11;;;;;;;4.15;1.58;;;19.40;99.90;;;;;;5105000;27;45341;-71
2023/08/09 10:18:42;;;;;;;3.28;1.20;;;19.50;99.90;;;;;;5109820;27;45260;-71
2023/08/09 10:21:10;;;;;;;5.72;1.40;;;19.50;99.90;;;;;;5103402;27;45122;-71
2023/08/09 10:23:36;;;;;;;3.55;1.52;;;19.50;99.90;;;;;;5103098;27;46308;-72
2023/08/09 10:26:03;;;;;;;1.80;1.30;;;19.60;99.90;;;;;;5101708;27;45153;-72
2023/08/09 10:28:49;;;;;;;2.05;1.42;;;19.70;99.90;;;;;;5106771;27;45278;-71
2023/08/09 10:31:47;;;;;;;4.43;1.30;;;19.60;99.90;;;;;;5105633;27;45741;-71
2023/08/09 10:34:15;;;;;;;2.15;1.08;;;19.60;99.90;;;;;;5103028;27;46251;-71
2023/08/09 10:36:43;;;;;;;2.55;1.25;;;19.70;99.90;;;;;;5103650;27;45173;-71
2023/08/09 10:39:12;;;;;;;2.03;1.23;;;19.70;99.90;;;;;;5109270;27;45282;-71
2023/08/09 10:41:53;;;;;;;5.70;1.98;;;19.70;99.90;;;;;;5106810;27;45409;-71
2023/08/09 10:44:35;;;;;;;3.33;1.10;;;19.70;99.90;;;;;;5112424;27;46302;-71
2023/08/09 10:47:04;;;;;;;4.85;1.33;;;19.80;99.90;;;;;;5099468;27;45332;-71
2023/08/09 10:50:00;;;;;;;3.33;1.00;;;19.80;99.90;;;;;;5104484;27;45321;-71
2023/08/09 10:52:31;;;;;;;3.25;1.13;;;19.80;99.90;;;;;;5095158;27;45249;-71
2023/08/09 10:55:26;;;;;;;4.53;1.10;;;19.80;99.90;;;;;;5107078;27;47971;-72
2023/08/09 10:57:54;;;;;;;2.92;1.02;;;19.90;99.90;;;;;;5103642;27;45129;-70
2023/08/09 11:00:24;;;;;;;1.98;1.00;;;19.90;99.90;;;;;;5105922;27;45047;-71
2023/08/09 11:02:52;;;;;;;2.50;0.80;;;20.00;98.90;;;;;;5103161;27;45260;-71
2023/08/09 11:05:19;;;;;;;3.22;1.40;;;20.00;98.90;;;;;;5103302;27;47607;-71
2023/08/09 11:07:47;;;;;;;4.00;1.02;;;20.00;98.30;;;;;;5114483;27;45138;-71
2023/08/09 11:10:15;;;;;;;1.65;0.90;;;19.90;97.20;;;;;;5100578;27;45220;-72
2023/08/09 11:12:44;;;;;;;3.85;1.20;;;19.90;99.90;;;;;;5105710;27;45522;-70
2023/08/09 11:15:12;;;;;;;5.88;1.10;;;19.80;99.10;;;;;;5099715;27;48402;-71
2023/08/09 11:17:49;;;;;;;8.18;1.52;;;19.90;99.90;;;;;;5108352;27;45166;-71
2023/08/09 11:20:19;;;;;;;5.45;1.30;;;20.00;99.90;;;;;;5103674;27;45345;-73
2023/08/09 11:22:46;;;;;;;8.77;2.05;;;20.00;99.70;;;;;;5106684;27;45141;-72
2023/08/09 11:25:13;;;;;;;4.47;1.10;;;20.10;98.80;;;;;;5104676;27;47343;-73
2023/08/09 11:27:40;;;;;;;2.55;1.10;;;20.10;99.10;;;;;;5105013;27;45267;-72
2023/08/09 11:30:09;;;;;;;10.20;1.10;;;20.10;96.60;;;;;;5112078;27;45191;-73
2023/08/09 11:32:36;;;;;;;3.22;1.02;;;20.20;99.10;;;;;;5098309;27;45319;-71
2023/08/09 11:35:05;;;;;;;2.55;0.95;;;20.20;97.10;;;;;;5100080;27;45438;-72
2023/08/09 11:37:31;;;;;;;4.00;0.98;;;20.20;97.00;;;;;;5099669;27;45221;-72
2023/08/09 11:39:58;;;;;;;4.32;0.98;;;20.10;98.20;;;;;;5097593;27;45273;-72
2023/08/09 11:42:25;;;;;;;5.78;1.15;;;20.10;99.70;;;;;;5101152;27;45306;-71
2023/08/09 11:44:52;;;;;;;6.50;1.30;;;20.10;98.80;;;;;;5096426;27;46030;-71
2023/08/09 11:47:19;;;;;;;4.88;1.27;;;20.20;98.70;;;;;;5100009;27;45222;-72
2023/08/09 11:49:45;;;;;;;4.10;1.10;;;20.20;99.90;;;;;;5097632;27;45279;-72
2023/08/09 11:52:17;;;;;;;3.85;0.95;;;20.20;99.90;;;;;;5098465;27;45307;-71
2023/08/09 11:54:44;;;;;;;2.45;1.00;;;20.20;99.90;;;;;;5096136;27;46103;-72
2023/08/09 11:57:11;;;;;;;6.85;1.42;;;20.20;99.80;;;;;;5099771;27;45274;-71
2023/08/09 11:59:40;;;;;;;3.05;1.10;;;20.30;99.90;;;;;;5102834;27;45244;-72
2023/08/09 12:02:07;;;;;;;2.85;1.23;;;20.20;99.90;;;;;;5101942;27;45239;-72
2023/08/09 12:04:34;;;;;;;3.22;1.17;;;20.30;99.90;;;;;;5109341;27;45307;-72
2023/08/09 12:07:05;;;;;;;1.67;0.80;;;20.30;99.90;;;;;;5106800;27;45246;-71
2023/08/09 12:09:39;;;;;;;1.73;1.20;;;20.20;99.90;;;;;;5100200;27;45184;-72
2023/08/09 12:12:07;;;;;;;9.15;1.15;;;20.30;99.90;;;;;;5095769;27;45466;-71
2023/08/09 12:14:35;;;;;;;2.40;0.85;;;20.40;98.60;;;;;;5099930;27;47988;-71
2023/08/09 12:17:03;;;;;;;2.95;1.00;;;20.50;99.90;;;;;;5103009;27;45110;-72
2023/08/09 12:19:30;;;;;;;1.80;0.82;;;20.50;96.60;;;;;;5106187;27;45111;-71
2023/08/09 12:21:56;;;;;;;2.47;1.00;;;20.50;98.70;;;;;;5122985;27;45107;-71
2023/08/09 12:24:23;;;;;;;1.60;1.10;;;20.50;98.30;;;;;;5093269;27;47914;-71
2023/08/09 12:26:51;;;;;;;4.82;1.20;;;20.50;99.90;;;;;;5098152;27;45218;-72
2023/08/09 12:29:18;;;;;;;3.38;1.10;;;20.40;99.70;;;;;;5109918;27;45247;-70
2023/08/09 12:31:45;;;;;;;3.65;1.10;;;20.50;98.00;;;;;;5100970;27;45506;-71
2023/08/09 12:34:13;;;;;;;2.40;1.10;;;20.50;98.70;;;;;;5102020;27;47256;-71
2023/08/09 12:36:40;;;;;;;2.58;0.93;;;20.60;94.30;;;;;;5099178;27;45259;-71
2023/08/09 12:39:10;;;;;;;3.75;1.00;;;20.60;96.00;;;;;;5102797;27;45217;-71
2023/08/09 12:41:37;;;;;;;3.88;1.10;;;20.60;97.90;;;;;;5100350;27;45502;-72
2023/08/09 12:44:07;;;;;;;6.07;1.10;;;20.60;96.80;;;;;;5103041;27;45324;-71
2023/08/09 12:46:33;;;;;;;2.95;1.20;;;20.60;96.10;;;;;;5102599;27;45490;-71
2023/08/09 12:49:00;;;;;;;3.05;0.93;;;20.70;93.10;;;;;;5110587;27;45302;-71
2023/08/09 12:51:27;;;;;;;2.78;1.10;;;20.70;94.30;;;;;;5105983;27;45151;-71